sensor_id;sensor_type;location;lat;lon;timestamp;P1;durP1;ratioP1;P2;durP2;ratioP2
261;SDS011;114;48.260;10.988;2023-06-22T00:00:57;11.50;;;7.20;;
261;SDS011;114;48.260;10.988;2023-06-22T00:03:24;11.83;;;7.90;;
261;SDS011;114;48.260;10.988;2023-06-22T00:05:51;10.60;;;5.83;;
261;SDS011;114;48.260;10.988;2023-06-22T00:08:17;10.97;;;6.80;;
261;SDS011;114;48.260;10.988;2023-06-22T00:10:43;10.23;;;6.77;;
261;SDS011;114;48.260;10.988;2023-06-22T00:13:10;8.33;;;6.37;;
261;SDS011;114;48.260;10.988;2023-06-22T00:15:37;12.77;;;6.00;;
261;SDS011;114;48.260;10.988;2023-06-22T00:18:04;14.60;;;6.10;;
261;SDS011;114;48.260;10.988;2023-06-22T00:20:34;8.03;;;5.87;;
261;SDS011;114;48.260;10.988;2023-06-22T00:23:02;6.37;;;5.20;;
261;SDS011;114;48.260;10.988;2023-06-22T00:25:36;12.73;;;6.50;;
261;SDS011;114;48.260;10.988;2023-06-22T00:28:03;14.33;;;7.00;;
261;SDS011;114;48.260;10.988;2023-06-22T00:30:30;10.77;;;6.43;;
261;SDS011;114;48.260;10.988;2023-06-22T00:32:56;14.73;;;7.60;;
261;SDS011;114;48.260;10.988;2023-06-22T00:35:22;13.50;;;6.40;;
261;SDS011;114;48.260;10.988;2023-06-22T00:37:47;15.47;;;6.73;;
261;SDS011;114;48.260;10.988;2023-06-22T00:40:13;24.03;;;6.97;;
261;SDS011;114;48.260;10.988;2023-06-22T00:42:39;14.27;;;6.30;;
261;SDS011;114;48.260;10.988;2023-06-22T00:45:06;23.43;;;7.80;;
261;SDS011;114;48.260;10.988;2023-06-22T00:47:35;10.30;;;6.00;;
261;SDS011;114;48.260;10.988;2023-06-22T00:50:02;12.83;;;7.30;;
261;SDS011;114;48.260;10.988;2023-06-22T00:52:32;11.40;;;6.13;;
261;SDS011;114;48.260;10.988;2023-06-22T00:55:00;15.40;;;6.87;;
261;SDS011;114;48.260;10.988;2023-06-22T00:57:27;13.27;;;6.67;;
261;SDS011;114;48.260;10.988;2023-06-22T00:59:53;18.10;;;7.17;;
261;SDS011;114;48.260;10.988;2023-06-22T01:02:19;20.40;;;7.60;;
261;SDS011;114;48.260;10.988;2023-06-22T01:04:45;15.97;;;6.70;;
261;SDS011;114;48.260;10.988;2023-06-22T01:10:08;13.50;;;7.23;;
261;SDS011;114;48.260;10.988;2023-06-22T01:12:42;8.90;;;6.10;;
261;SDS011;114;48.260;10.988;2023-06-22T01:15:15;13.37;;;6.83;;
261;SDS011;114;48.260;10.988;2023-06-22T01:17:48;10.30;;;5.70;;
261;SDS011;114;48.260;10.988;2023-06-22T01:20:17;11.30;;;6.40;;
261;SDS011;114;48.260;10.988;2023-06-22T01:30:56;14.77;;;6.83;;
261;SDS011;114;48.260;10.988;2023-06-22T01:33:31;18.30;;;6.97;;
261;SDS011;114;48.260;10.988;2023-06-22T01:36:00;14.17;;;5.80;;
261;SDS011;114;48.260;10.988;2023-06-22T01:38:28;11.83;;;6.00;;
261;SDS011;114;48.260;10.988;2023-06-22T01:40:54;14.97;;;6.90;;
261;SDS011;114;48.260;10.988;2023-06-22T01:43:22;12.30;;;7.07;;
261;SDS011;114;48.260;10.988;2023-06-22T01:45:51;8.00;;;6.50;;
261;SDS011;114;48.260;10.988;2023-06-22T01:48:18;8.27;;;6.30;;
261;SDS011;114;48.260;10.988;2023-06-22T01:50:44;12.50;;;7.43;;
261;SDS011;114;48.260;10.988;2023-06-22T01:53:10;11.37;;;6.27;;
261;SDS011;114;48.260;10.988;2023-06-22T01:55:36;8.80;;;7.23;;
261;SDS011;114;48.260;10.988;2023-06-22T01:58:02;12.13;;;7.10;;
261;SDS011;114;48.260;10.988;2023-06-22T02:00:28;10.27;;;6.97;;
261;SDS011;114;48.260;10.988;2023-06-22T02:03:41;12.67;;;7.40;;
261;SDS011;114;48.260;10.988;2023-06-22T02:06:06;15.60;;;7.87;;
261;SDS011;114;48.260;10.988;2023-06-22T02:08:40;14.67;;;8.30;;
261;SDS011;114;48.260;10.988;2023-06-22T02:11:11;9.93;;;7.83;;
261;SDS011;114;48.260;10.988;2023-06-22T02:13:38;13.27;;;8.13;;
261;SDS011;114;48.260;10.988;2023-06-22T02:16:08;19.87;;;8.03;;
261;SDS011;114;48.260;10.988;2023-06-22T02:18:35;10.87;;;8.33;;
261;SDS011;114;48.260;10.988;2023-06-22T02:21:02;11.37;;;7.77;;
261;SDS011;114;48.260;10.988;2023-06-22T02:23:28;12.00;;;8.20;;
261;SDS011;114;48.260;10.988;2023-06-22T02:25:54;13.73;;;8.53;;
261;SDS011;114;48.260;10.988;2023-06-22T02:28:19;15.83;;;8.10;;
261;SDS011;114;48.260;10.988;2023-06-22T02:30:45;16.53;;;8.17;;
261;SDS011;114;48.260;10.988;2023-06-22T02:33:11;16.43;;;8.43;;
261;SDS011;114;48.260;10.988;2023-06-22T02:35:36;12.57;;;7.73;;
261;SDS011;114;48.260;10.988;2023-06-22T02:38:03;15.87;;;8.80;;
261;SDS011;114;48.260;10.988;2023-06-22T02:40:29;21.43;;;8.83;;
261;SDS011;114;48.260;10.988;2023-06-22T02:42:55;11.40;;;8.43;;
261;SDS011;114;48.260;10.988;2023-06-22T02:45:23;11.77;;;8.20;;
261;SDS011;114;48.260;10.988;2023-06-22T02:47:49;16.40;;;7.50;;
261;SDS011;114;48.260;10.988;2023-06-22T02:50:15;10.43;;;7.40;;
261;SDS011;114;48.260;10.988;2023-06-22T02:52:41;16.83;;;8.50;;
261;SDS011;114;48.260;10.988;2023-06-22T02:55:06;13.60;;;8.57;;
261;SDS011;114;48.260;10.988;2023-06-22T02:57:33;18.27;;;7.80;;
261;SDS011;114;48.260;10.988;2023-06-22T02:59:59;15.03;;;9.00;;
261;SDS011;114;48.260;10.988;2023-06-22T03:02:25;12.13;;;7.40;;
261;SDS011;114;48.260;10.988;2023-06-22T03:04:51;18.13;;;8.73;;
261;SDS011;114;48.260;10.988;2023-06-22T03:07:19;13.33;;;8.77;;
261;SDS011;114;48.260;10.988;2023-06-22T03:09:45;16.23;;;8.57;;
261;SDS011;114;48.260;10.988;2023-06-22T03:12:11;10.53;;;8.00;;
261;SDS011;114;48.260;10.988;2023-06-22T03:14:36;19.57;;;8.30;;
261;SDS011;114;48.260;10.988;2023-06-22T03:17:04;12.67;;;9.40;;
261;SDS011;114;48.260;10.988;2023-06-22T03:19:31;15.60;;;8.50;;
261;SDS011;114;48.260;10.988;2023-06-22T03:21:59;10.77;;;7.87;;
261;SDS011;114;48.260;10.988;2023-06-22T03:24:25;20.50;;;8.30;;
261;SDS011;114;48.260;10.988;2023-06-22T03:26:54;15.17;;;8.60;;
261;SDS011;114;48.260;10.988;2023-06-22T03:29:20;13.83;;;8.83;;
261;SDS011;114;48.260;10.988;2023-06-22T03:31:45;19.50;;;9.57;;
261;SDS011;114;48.260;10.988;2023-06-22T03:34:11;15.23;;;8.37;;
261;SDS011;114;48.260;10.988;2023-06-22T03:36:37;11.50;;;8.30;;
261;SDS011;114;48.260;10.988;2023-06-22T03:39:02;12.27;;;8.50;;
261;SDS011;114;48.260;10.988;2023-06-22T03:41:28;15.70;;;8.60;;
261;SDS011;114;48.260;10.988;2023-06-22T03:43:54;13.53;;;8.67;;
261;SDS011;114;48.260;10.988;2023-06-22T03:46:19;13.87;;;8.70;;
261;SDS011;114;48.260;10.988;2023-06-22T03:48:45;14.03;;;8.30;;
261;SDS011;114;48.260;10.988;2023-06-22T03:51:11;17.73;;;8.40;;
261;SDS011;114;48.260;10.988;2023-06-22T03:53:37;11.40;;;8.07;;
261;SDS011;114;48.260;10.988;2023-06-22T03:56:02;20.27;;;9.00;;
261;SDS011;114;48.260;10.988;2023-06-22T03:58:28;12.40;;;8.50;;
261;SDS011;114;48.260;10.988;2023-06-22T04:00:57;12.73;;;7.50;;
261;SDS011;114;48.260;10.988;2023-06-22T04:03:25;12.33;;;7.73;;
261;SDS011;114;48.260;10.988;2023-06-22T04:05:50;14.40;;;8.13;;
261;SDS011;114;48.260;10.988;2023-06-22T04:08:16;15.77;;;8.13;;
261;SDS011;114;48.260;10.988;2023-06-22T04:10:43;19.70;;;8.40;;
261;SDS011;114;48.260;10.988;2023-06-22T04:13:09;15.80;;;8.17;;
261;SDS011;114;48.260;10.988;2023-06-22T04:15:34;10.50;;;8.47;;
261;SDS011;114;48.260;10.988;2023-06-22T04:18:00;15.17;;;8.23;;
261;SDS011;114;48.260;10.988;2023-06-22T04:20:26;14.63;;;7.93;;
261;SDS011;114;48.260;10.988;2023-06-22T04:22:54;15.53;;;9.47;;
261;SDS011;114;48.260;10.988;2023-06-22T04:25:20;14.97;;;8.00;;
261;SDS011;114;48.260;10.988;2023-06-22T04:27:47;10.20;;;7.00;;
261;SDS011;114;48.260;10.988;2023-06-22T04:30:13;9.67;;;7.67;;
261;SDS011;114;48.260;10.988;2023-06-22T04:32:41;19.00;;;8.70;;
261;SDS011;114;48.260;10.988;2023-06-22T04:35:07;11.93;;;7.83;;
261;SDS011;114;48.260;10.988;2023-06-22T04:37:33;16.63;;;7.40;;
261;SDS011;114;48.260;10.988;2023-06-22T04:39:59;18.50;;;7.60;;
261;SDS011;114;48.260;10.988;2023-06-22T04:42:28;11.67;;;7.50;;
261;SDS011;114;48.260;10.988;2023-06-22T04:44:54;12.00;;;7.97;;
261;SDS011;114;48.260;10.988;2023-06-22T04:47:19;20.43;;;6.90;;
261;SDS011;114;48.260;10.988;2023-06-22T04:49:46;12.00;;;7.67;;
261;SDS011;114;48.260;10.988;2023-06-22T04:52:12;14.93;;;7.90;;
261;SDS011;114;48.260;10.988;2023-06-22T04:54:39;15.53;;;7.00;;
261;SDS011;114;48.260;10.988;2023-06-22T04:57:12;11.80;;;8.10;;
261;SDS011;114;48.260;10.988;2023-06-22T04:59:38;14.23;;;8.03;;
261;SDS011;114;48.260;10.988;2023-06-22T05:02:06;18.97;;;7.40;;
261;SDS011;114;48.260;10.988;2023-06-22T05:04:33;14.60;;;8.23;;
261;SDS011;114;48.260;10.988;2023-06-22T05:07:00;16.47;;;8.00;;
261;SDS011;114;48.260;10.988;2023-06-22T05:09:27;14.13;;;8.90;;
261;SDS011;114;48.260;10.988;2023-06-22T05:11:54;14.00;;;6.90;;
261;SDS011;114;48.260;10.988;2023-06-22T05:14:21;11.63;;;7.80;;
261;SDS011;114;48.260;10.988;2023-06-22T05:16:48;14.07;;;7.80;;
261;SDS011;114;48.260;10.988;2023-06-22T05:19:14;14.80;;;7.57;;
261;SDS011;114;48.260;10.988;2023-06-22T05:21:40;13.57;;;7.73;;
261;SDS011;114;48.260;10.988;2023-06-22T05:24:05;16.73;;;7.13;;
261;SDS011;114;48.260;10.988;2023-06-22T05:26:32;15.60;;;7.83;;
261;SDS011;114;48.260;10.988;2023-06-22T05:28:59;12.17;;;7.50;;
261;SDS011;114;48.260;10.988;2023-06-22T05:31:26;17.60;;;7.93;;
261;SDS011;114;48.260;10.988;2023-06-22T05:33:53;13.50;;;6.67;;
261;SDS011;114;48.260;10.988;2023-06-22T05:36:20;15.27;;;8.03;;
261;SDS011;114;48.260;10.988;2023-06-22T05:38:46;14.60;;;7.33;;
261;SDS011;114;48.260;10.988;2023-06-22T05:41:12;19.57;;;7.07;;
261;SDS011;114;48.260;10.988;2023-06-22T05:43:39;19.80;;;7.23;;
261;SDS011;114;48.260;10.988;2023-06-22T05:46:05;9.77;;;7.00;;
261;SDS011;114;48.260;10.988;2023-06-22T05:48:31;12.70;;;6.97;;
261;SDS011;114;48.260;10.988;2023-06-22T05:50:56;15.23;;;6.93;;
261;SDS011;114;48.260;10.988;2023-06-22T05:53:22;13.20;;;7.53;;
261;SDS011;114;48.260;10.988;2023-06-22T05:55:48;6.67;;;5.80;;
261;SDS011;114;48.260;10.988;2023-06-22T05:58:14;13.50;;;6.70;;
261;SDS011;114;48.260;10.988;2023-06-22T06:00:40;14.20;;;7.10;;
261;SDS011;114;48.260;10.988;2023-06-22T06:03:06;15.13;;;7.17;;
261;SDS011;114;48.260;10.988;2023-06-22T06:05:33;13.60;;;6.73;;
261;SDS011;114;48.260;10.988;2023-06-22T06:08:02;14.63;;;7.70;;
261;SDS011;114;48.260;10.988;2023-06-22T06:10:30;15.80;;;7.00;;
261;SDS011;114;48.260;10.988;2023-06-22T06:12:57;11.97;;;6.90;;
261;SDS011;114;48.260;10.988;2023-06-22T06:15:23;14.23;;;7.07;;
261;SDS011;114;48.260;10.988;2023-06-22T06:17:49;9.77;;;6.43;;
261;SDS011;114;48.260;10.988;2023-06-22T06:20:18;13.43;;;7.10;;
261;SDS011;114;48.260;10.988;2023-06-22T06:22:45;14.00;;;7.70;;
261;SDS011;114;48.260;10.988;2023-06-22T06:25:11;10.57;;;6.57;;
261;SDS011;114;48.260;10.988;2023-06-22T06:27:44;14.93;;;6.77;;
261;SDS011;114;48.260;10.988;2023-06-22T06:30:13;20.40;;;7.80;;
261;SDS011;114;48.260;10.988;2023-06-22T06:32:40;9.87;;;7.17;;
261;SDS011;114;48.260;10.988;2023-06-22T06:35:07;11.70;;;7.30;;
261;SDS011;114;48.260;10.988;2023-06-22T06:37:37;11.47;;;6.60;;
261;SDS011;114;48.260;10.988;2023-06-22T06:40:08;9.53;;;6.23;;
261;SDS011;114;48.260;10.988;2023-06-22T06:42:38;11.27;;;6.83;;
261;SDS011;114;48.260;10.988;2023-06-22T06:45:09;11.90;;;7.13;;
261;SDS011;114;48.260;10.988;2023-06-22T06:47:37;15.20;;;7.60;;
261;SDS011;114;48.260;10.988;2023-06-22T06:50:03;12.97;;;7.77;;
261;SDS011;114;48.260;10.988;2023-06-22T06:52:30;11.63;;;7.33;;
261;SDS011;114;48.260;10.988;2023-06-22T06:54:55;14.03;;;6.53;;
261;SDS011;114;48.260;10.988;2023-06-22T06:57:21;21.43;;;7.23;;
261;SDS011;114;48.260;10.988;2023-06-22T06:59:47;11.30;;;6.20;;
261;SDS011;114;48.260;10.988;2023-06-22T07:02:14;23.13;;;7.27;;
261;SDS011;114;48.260;10.988;2023-06-22T07:04:41;12.07;;;7.03;;
261;SDS011;114;48.260;10.988;2023-06-22T07:07:06;10.20;;;7.40;;
261;SDS011;114;48.260;10.988;2023-06-22T07:09:32;12.90;;;6.43;;
261;SDS011;114;48.260;10.988;2023-06-22T07:11:58;13.77;;;6.60;;
261;SDS011;114;48.260;10.988;2023-06-22T07:14:23;11.73;;;6.77;;
261;SDS011;114;48.260;10.988;2023-06-22T07:16:49;13.47;;;7.17;;
261;SDS011;114;48.260;10.988;2023-06-22T07:19:15;17.17;;;7.33;;
261;SDS011;114;48.260;10.988;2023-06-22T07:21:40;16.67;;;6.67;;
261;SDS011;114;48.260;10.988;2023-06-22T07:24:06;14.33;;;6.93;;
261;SDS011;114;48.260;10.988;2023-06-22T07:26:33;14.43;;;8.00;;
261;SDS011;114;48.260;10.988;2023-06-22T07:28:59;11.40;;;6.80;;
261;SDS011;114;48.260;10.988;2023-06-22T07:31:25;14.10;;;7.67;;
261;SDS011;114;48.260;10.988;2023-06-22T07:33:50;11.57;;;6.60;;
261;SDS011;114;48.260;10.988;2023-06-22T07:36:17;17.33;;;6.80;;
261;SDS011;114;48.260;10.988;2023-06-22T07:38:44;11.00;;;6.67;;
261;SDS011;114;48.260;10.988;2023-06-22T07:41:09;14.67;;;6.77;;
261;SDS011;114;48.260;10.988;2023-06-22T07:43:35;21.87;;;7.70;;
261;SDS011;114;48.260;10.988;2023-06-22T07:46:05;14.73;;;7.20;;
261;SDS011;114;48.260;10.988;2023-06-22T07:48:31;19.83;;;7.97;;
261;SDS011;114;48.260;10.988;2023-06-22T07:50:57;13.30;;;6.97;;
261;SDS011;114;48.260;10.988;2023-06-22T07:53:23;16.77;;;8.27;;
261;SDS011;114;48.260;10.988;2023-06-22T07:55:49;14.13;;;8.00;;
261;SDS011;114;48.260;10.988;2023-06-22T07:58:15;16.50;;;7.07;;
261;SDS011;114;48.260;10.988;2023-06-22T08:00:41;20.80;;;6.40;;
261;SDS011;114;48.260;10.988;2023-06-22T08:03:07;19.93;;;7.80;;
261;SDS011;114;48.260;10.988;2023-06-22T08:05:32;14.90;;;6.87;;
261;SDS011;114;48.260;10.988;2023-06-22T08:07:58;28.13;;;7.37;;
261;SDS011;114;48.260;10.988;2023-06-22T08:10:24;21.53;;;7.87;;
261;SDS011;114;48.260;10.988;2023-06-22T08:12:50;24.23;;;6.80;;
261;SDS011;114;48.260;10.988;2023-06-22T08:15:17;16.17;;;6.60;;
261;SDS011;114;48.260;10.988;2023-06-22T08:17:43;14.40;;;6.50;;
261;SDS011;114;48.260;10.988;2023-06-22T08:20:11;23.83;;;7.13;;
261;SDS011;114;48.260;10.988;2023-06-22T08:22:37;18.50;;;7.50;;
261;SDS011;114;48.260;10.988;2023-06-22T08:25:04;13.40;;;6.67;;
261;SDS011;114;48.260;10.988;2023-06-22T08:27:30;19.63;;;6.70;;
261;SDS011;114;48.260;10.988;2023-06-22T08:29:59;11.63;;;6.67;;
261;SDS011;114;48.260;10.988;2023-06-22T08:32:26;13.60;;;7.37;;
261;SDS011;114;48.260;10.988;2023-06-22T08:34:55;19.07;;;8.30;;
261;SDS011;114;48.260;10.988;2023-06-22T08:37:22;12.37;;;6.47;;
261;SDS011;114;48.260;10.988;2023-06-22T08:40:05;16.27;;;6.70;;
261;SDS011;114;48.260;10.988;2023-06-22T08:42:33;12.90;;;6.67;;
261;SDS011;114;48.260;10.988;2023-06-22T08:44:59;16.73;;;6.90;;
261;SDS011;114;48.260;10.988;2023-06-22T08:47:26;30.13;;;8.53;;
261;SDS011;114;48.260;10.988;2023-06-22T08:49:52;28.13;;;7.30;;
261;SDS011;114;48.260;10.988;2023-06-22T08:52:18;20.90;;;8.00;;
261;SDS011;114;48.260;10.988;2023-06-22T08:54:45;16.93;;;7.33;;
261;SDS011;114;48.260;10.988;2023-06-22T08:57:11;12.80;;;6.50;;
261;SDS011;114;48.260;10.988;2023-06-22T08:59:36;16.60;;;7.10;;
261;SDS011;114;48.260;10.988;2023-06-22T09:02:02;22.03;;;7.37;;
261;SDS011;114;48.260;10.988;2023-06-22T09:04:28;22.33;;;7.00;;
261;SDS011;114;48.260;10.988;2023-06-22T09:06:53;21.70;;;8.57;;
261;SDS011;114;48.260;10.988;2023-06-22T09:09:20;20.30;;;7.10;;
261;SDS011;114;48.260;10.988;2023-06-22T09:11:46;22.20;;;6.50;;
261;SDS011;114;48.260;10.988;2023-06-22T09:14:12;20.03;;;6.57;;
261;SDS011;114;48.260;10.988;2023-06-22T09:16:38;17.23;;;7.20;;
261;SDS011;114;48.260;10.988;2023-06-22T09:19:04;21.05;;;7.88;;
261;SDS011;114;48.260;10.988;2023-06-22T09:21:30;17.17;;;7.20;;
261;SDS011;114;48.260;10.988;2023-06-22T09:23:56;14.07;;;7.90;;
261;SDS011;114;48.260;10.988;2023-06-22T09:26:21;20.90;;;6.67;;
261;SDS011;114;48.260;10.988;2023-06-22T09:28:50;17.47;;;7.87;;
261;SDS011;114;48.260;10.988;2023-06-22T09:31:16;18.10;;;7.30;;
261;SDS011;114;48.260;10.988;2023-06-22T09:33:42;16.92;;;6.45;;
261;SDS011;114;48.260;10.988;2023-06-22T09:36:08;17.27;;;7.13;;
261;SDS011;114;48.260;10.988;2023-06-22T09:38:37;22.83;;;6.90;;
261;SDS011;114;48.260;10.988;2023-06-22T09:41:04;25.13;;;7.53;;
261;SDS011;114;48.260;10.988;2023-06-22T09:43:31;22.17;;;7.15;;
261;SDS011;114;48.260;10.988;2023-06-22T09:45:57;17.63;;;6.93;;
261;SDS011;114;48.260;10.988;2023-06-22T09:48:23;13.57;;;6.95;;
261;SDS011;114;48.260;10.988;2023-06-22T09:50:49;19.77;;;8.18;;
261;SDS011;114;48.260;10.988;2023-06-22T09:53:16;19.27;;;6.78;;
261;SDS011;114;48.260;10.988;2023-06-22T09:55:41;19.60;;;6.32;;
261;SDS011;114;48.260;10.988;2023-06-22T09:58:07;19.35;;;7.07;;
261;SDS011;114;48.260;10.988;2023-06-22T10:00:33;17.90;;;6.50;;
261;SDS011;114;48.260;10.988;2023-06-22T10:02:59;13.20;;;6.53;;
261;SDS011;114;48.260;10.988;2023-06-22T10:05:25;25.88;;;7.45;;
261;SDS011;114;48.260;10.988;2023-06-22T10:07:50;15.27;;;6.53;;
261;SDS011;114;48.260;10.988;2023-06-22T10:10:16;26.02;;;7.28;;
261;SDS011;114;48.260;10.988;2023-06-22T10:12:43;23.38;;;6.75;;
261;SDS011;114;48.260;10.988;2023-06-22T10:15:19;14.20;;;6.38;;
261;SDS011;114;48.260;10.988;2023-06-22T10:17:46;10.73;;;6.10;;
261;SDS011;114;48.260;10.988;2023-06-22T10:20:12;21.67;;;6.70;;
261;SDS011;114;48.260;10.988;2023-06-22T10:22:43;16.10;;;6.68;;
261;SDS011;114;48.260;10.988;2023-06-22T10:25:10;9.82;;;5.95;;
261;SDS011;114;48.260;10.988;2023-06-22T10:27:36;18.92;;;6.70;;
261;SDS011;114;48.260;10.988;2023-06-22T10:30:05;15.13;;;6.05;;
261;SDS011;114;48.260;10.988;2023-06-22T10:32:31;21.83;;;6.40;;
261;SDS011;114;48.260;10.988;2023-06-22T10:34:58;27.17;;;7.15;;
261;SDS011;114;48.260;10.988;2023-06-22T10:37:24;17.73;;;7.15;;
261;SDS011;114;48.260;10.988;2023-06-22T10:39:50;13.43;;;5.60;;
261;SDS011;114;48.260;10.988;2023-06-22T10:42:16;28.60;;;6.93;;
261;SDS011;114;48.260;10.988;2023-06-22T10:44:42;30.40;;;6.38;;
261;SDS011;114;48.260;10.988;2023-06-22T10:47:10;18.77;;;7.30;;
261;SDS011;114;48.260;10.988;2023-06-22T10:49:39;17.67;;;6.28;;
261;SDS011;114;48.260;10.988;2023-06-22T10:52:06;19.30;;;6.70;;
261;SDS011;114;48.260;10.988;2023-06-22T10:54:32;14.38;;;5.25;;
261;SDS011;114;48.260;10.988;2023-06-22T10:56:59;15.60;;;5.68;;
261;SDS011;114;48.260;10.988;2023-06-22T10:59:25;16.33;;;5.97;;
261;SDS011;114;48.260;10.988;2023-06-22T11:01:52;18.45;;;5.47;;
261;SDS011;114;48.260;10.988;2023-06-22T11:04:18;18.63;;;6.15;;
261;SDS011;114;48.260;10.988;2023-06-22T11:06:44;15.93;;;5.43;;
261;SDS011;114;48.260;10.988;2023-06-22T11:09:09;18.55;;;6.00;;
261;SDS011;114;48.260;10.988;2023-06-22T11:11:35;14.50;;;6.07;;
261;SDS011;114;48.260;10.988;2023-06-22T11:14:00;16.50;;;7.47;;
261;SDS011;114;48.260;10.988;2023-06-22T11:16:26;10.27;;;5.55;;
261;SDS011;114;48.260;10.988;2023-06-22T11:18:53;17.33;;;5.95;;
261;SDS011;114;48.260;10.988;2023-06-22T11:21:18;36.97;;;6.72;;
261;SDS011;114;48.260;10.988;2023-06-22T11:23:45;20.58;;;6.18;;
261;SDS011;114;48.260;10.988;2023-06-22T11:26:11;17.80;;;5.50;;
261;SDS011;114;48.260;10.988;2023-06-22T11:28:36;11.77;;;5.50;;
261;SDS011;114;48.260;10.988;2023-06-22T11:31:02;22.85;;;6.55;;
261;SDS011;114;48.260;10.988;2023-06-22T11:33:28;14.80;;;6.60;;
261;SDS011;114;48.260;10.988;2023-06-22T11:35:54;18.45;;;5.75;;
261;SDS011;114;48.260;10.988;2023-06-22T11:38:21;20.73;;;5.72;;
261;SDS011;114;48.260;10.988;2023-06-22T11:40:47;14.38;;;5.45;;
261;SDS011;114;48.260;10.988;2023-06-22T11:43:13;18.02;;;5.82;;
261;SDS011;114;48.260;10.988;2023-06-22T11:45:40;23.27;;;5.88;;
261;SDS011;114;48.260;10.988;2023-06-22T11:48:05;23.50;;;5.57;;
261;SDS011;114;48.260;10.988;2023-06-22T11:50:31;13.35;;;5.88;;
261;SDS011;114;48.260;10.988;2023-06-22T11:53:00;19.38;;;5.63;;
261;SDS011;114;48.260;10.988;2023-06-22T11:55:29;13.82;;;5.75;;
261;SDS011;114;48.260;10.988;2023-06-22T11:57:56;13.65;;;6.05;;
261;SDS011;114;48.260;10.988;2023-06-22T12:00:28;18.45;;;5.70;;
261;SDS011;114;48.260;10.988;2023-06-22T12:02:54;13.98;;;4.97;;
261;SDS011;114;48.260;10.988;2023-06-22T12:05:21;11.55;;;4.97;;
261;SDS011;114;48.260;10.988;2023-06-22T12:07:47;17.90;;;5.63;;
261;SDS011;114;48.260;10.988;2023-06-22T12:10:13;17.27;;;5.75;;
261;SDS011;114;48.260;10.988;2023-06-22T12:12:39;23.85;;;7.15;;
261;SDS011;114;48.260;10.988;2023-06-22T12:15:05;18.20;;;6.30;;
261;SDS011;114;48.260;10.988;2023-06-22T12:17:32;20.00;;;5.70;;
261;SDS011;114;48.260;10.988;2023-06-22T12:19:59;15.27;;;5.35;;
261;SDS011;114;48.260;10.988;2023-06-22T12:22:24;16.38;;;5.05;;
261;SDS011;114;48.260;10.988;2023-06-22T12:24:50;15.57;;;5.00;;
261;SDS011;114;48.260;10.988;2023-06-22T12:27:19;8.75;;;4.85;;
261;SDS011;114;48.260;10.988;2023-06-22T12:29:45;21.05;;;4.50;;
261;SDS011;114;48.260;10.988;2023-06-22T12:32:11;13.05;;;5.65;;
261;SDS011;114;48.260;10.988;2023-06-22T12:34:41;15.63;;;5.80;;
261;SDS011;114;48.260;10.988;2023-06-22T12:37:07;16.88;;;5.32;;
261;SDS011;114;48.260;10.988;2023-06-22T12:39:33;14.77;;;4.88;;
261;SDS011;114;48.260;10.988;2023-06-22T12:41:59;20.50;;;5.30;;
261;SDS011;114;48.260;10.988;2023-06-22T12:44:25;18.70;;;5.22;;
261;SDS011;114;48.260;10.988;2023-06-22T12:46:51;17.70;;;5.25;;
261;SDS011;114;48.260;10.988;2023-06-22T12:49:17;11.40;;;4.95;;
261;SDS011;114;48.260;10.988;2023-06-22T12:51:43;18.48;;;4.93;;
261;SDS011;114;48.260;10.988;2023-06-22T12:54:09;21.90;;;5.10;;
261;SDS011;114;48.260;10.988;2023-06-22T12:56:36;20.55;;;5.22;;
261;SDS011;114;48.260;10.988;2023-06-22T12:59:02;14.35;;;4.72;;
261;SDS011;114;48.260;10.988;2023-06-22T13:01:29;10.73;;;4.47;;
261;SDS011;114;48.260;10.988;2023-06-22T13:03:55;8.68;;;4.55;;
261;SDS011;114;48.260;10.988;2023-06-22T13:06:21;14.75;;;4.65;;
261;SDS011;114;48.260;10.988;2023-06-22T13:08:47;15.32;;;5.00;;
261;SDS011;114;48.260;10.988;2023-06-22T13:11:13;13.02;;;5.13;;
261;SDS011;114;48.260;10.988;2023-06-22T13:13:39;14.65;;;4.70;;
261;SDS011;114;48.260;10.988;2023-06-22T13:16:05;14.38;;;3.92;;
261;SDS011;114;48.260;10.988;2023-06-22T13:18:31;19.85;;;5.18;;
261;SDS011;114;48.260;10.988;2023-06-22T13:20:58;16.45;;;4.57;;
261;SDS011;114;48.260;10.988;2023-06-22T13:23:25;15.80;;;4.53;;
261;SDS011;114;48.260;10.988;2023-06-22T13:25:51;16.75;;;5.60;;
261;SDS011;114;48.260;10.988;2023-06-22T13:28:16;24.45;;;4.65;;
261;SDS011;114;48.260;10.988;2023-06-22T13:30:42;9.40;;;4.55;;
261;SDS011;114;48.260;10.988;2023-06-22T13:33:11;10.07;;;3.95;;
261;SDS011;114;48.260;10.988;2023-06-22T13:35:36;21.65;;;4.43;;
261;SDS011;114;48.260;10.988;2023-06-22T13:38:03;13.80;;;3.92;;
261;SDS011;114;48.260;10.988;2023-06-22T13:40:29;9.77;;;3.72;;
261;SDS011;114;48.260;10.988;2023-06-22T13:42:55;11.68;;;4.05;;
261;SDS011;114;48.260;10.988;2023-06-22T13:45:22;16.95;;;4.40;;
261;SDS011;114;48.260;10.988;2023-06-22T13:47:48;13.60;;;3.63;;
261;SDS011;114;48.260;10.988;2023-06-22T13:50:14;23.60;;;3.90;;
261;SDS011;114;48.260;10.988;2023-06-22T13:52:40;16.40;;;4.03;;
261;SDS011;114;48.260;10.988;2023-06-22T13:55:06;16.83;;;3.83;;
261;SDS011;114;48.260;10.988;2023-06-22T13:57:32;11.20;;;3.95;;
261;SDS011;114;48.260;10.988;2023-06-22T13:59:59;11.27;;;3.45;;
261;SDS011;114;48.260;10.988;2023-06-22T14:02:27;13.98;;;3.60;;
261;SDS011;114;48.260;10.988;2023-06-22T14:04:53;8.88;;;3.03;;
261;SDS011;114;48.260;10.988;2023-06-22T14:07:19;14.85;;;3.72;;
261;SDS011;114;48.260;10.988;2023-06-22T14:09:45;12.50;;;3.60;;
261;SDS011;114;48.260;10.988;2023-06-22T14:12:11;21.45;;;3.67;;
261;SDS011;114;48.260;10.988;2023-06-22T14:14:37;10.48;;;3.30;;
261;SDS011;114;48.260;10.988;2023-06-22T14:17:03;27.83;;;3.80;;
261;SDS011;114;48.260;10.988;2023-06-22T14:19:30;12.80;;;3.65;;
261;SDS011;114;48.260;10.988;2023-06-22T14:21:56;21.92;;;4.00;;
261;SDS011;114;48.260;10.988;2023-06-22T14:24:24;16.23;;;3.40;;
261;SDS011;114;48.260;10.988;2023-06-22T14:26:50;19.05;;;5.07;;
261;SDS011;114;48.260;10.988;2023-06-22T14:29:16;10.23;;;3.20;;
261;SDS011;114;48.260;10.988;2023-06-22T14:31:44;17.38;;;4.40;;
261;SDS011;114;48.260;10.988;2023-06-22T14:34:11;27.77;;;3.97;;
261;SDS011;114;48.260;10.988;2023-06-22T14:36:36;12.48;;;4.10;;
261;SDS011;114;48.260;10.988;2023-06-22T14:39:02;18.13;;;3.70;;
261;SDS011;114;48.260;10.988;2023-06-22T14:41:29;15.75;;;3.85;;
261;SDS011;114;48.260;10.988;2023-06-22T14:43:57;14.57;;;3.63;;
261;SDS011;114;48.260;10.988;2023-06-22T14:46:23;21.83;;;3.67;;
261;SDS011;114;48.260;10.988;2023-06-22T14:48:49;19.23;;;2.90;;
261;SDS011;114;48.260;10.988;2023-06-22T14:51:14;10.20;;;3.67;;
261;SDS011;114;48.260;10.988;2023-06-22T14:53:41;16.42;;;3.53;;
261;SDS011;114;48.260;10.988;2023-06-22T14:56:07;14.80;;;3.58;;
261;SDS011;114;48.260;10.988;2023-06-22T14:58:33;26.27;;;3.58;;
261;SDS011;114;48.260;10.988;2023-06-22T15:00:59;15.48;;;4.43;;
261;SDS011;114;48.260;10.988;2023-06-22T15:03:25;25.92;;;4.30;;
261;SDS011;114;48.260;10.988;2023-06-22T15:05:53;19.75;;;3.90;;
261;SDS011;114;48.260;10.988;2023-06-22T15:08:20;15.57;;;3.67;;
261;SDS011;114;48.260;10.988;2023-06-22T15:10:46;12.50;;;3.67;;
261;SDS011;114;48.260;10.988;2023-06-22T15:13:11;15.65;;;3.70;;
261;SDS011;114;48.260;10.988;2023-06-22T15:15:37;18.30;;;3.30;;
261;SDS011;114;48.260;10.988;2023-06-22T15:18:04;13.82;;;3.65;;
261;SDS011;114;48.260;10.988;2023-06-22T15:20:29;12.25;;;3.22;;
261;SDS011;114;48.260;10.988;2023-06-22T15:22:56;20.27;;;3.60;;
261;SDS011;114;48.260;10.988;2023-06-22T15:25:22;22.27;;;4.63;;